Time;durP1;ratioP1;P1;durP2;ratioP2;P2;SDS_P1;SDS_P2;PMS_P1;PMS_P2;Temp;Humidity;BMP_temperature;BMP_pressure;BME280_temperature;BME280_humidity;BME280_pressure;Samples;Min_cycle;Max_cycle;Signal;HPM_P1;HPM_P2
2022/10/24 02:41:55;;;;;;;17.48;6.75;;;14.60;99.90;;;;;;4937715;29;20130;-70
2022/10/24 02:44:23;;;;;;;15.98;7.07;;;14.60;99.90;;;;;;4936350;29;20031;-70
2022/10/24 02:46:53;;;;;;;19.30;5.97;;;14.60;99.90;;;;;;4920198;29;20100;-70
2022/10/24 02:49:19;;;;;;;20.33;6.88;;;14.50;99.90;;;;;;4920353;29;20031;-70
2022/10/24 02:51:45;;;;;;;16.50;6.50;;;14.50;99.90;;;;;;4920615;29;20432;-69
2022/10/24 02:54:11;;;;;;;16.15;6.28;;;14.40;99.90;;;;;;4921022;29;20118;-70
2022/10/24 02:56:46;;;;;;;15.68;6.47;;;14.30;99.90;;;;;;4937844;29;20071;-69
2022/10/24 02:59:11;;;;;;;17.48;6.25;;;14.20;99.90;;;;;;4920888;29;20062;-70
2022/10/24 03:01:37;;;;;;;14.40;6.50;;;14.20;99.90;;;;;;4922048;29;20059;-70
2022/10/24 03:04:02;;;;;;;15.77;6.85;;;14.10;99.90;;;;;;4938668;29;20067;-71
2022/10/24 03:06:28;;;;;;;16.55;7.00;;;14.10;99.90;;;;;;4921464;29;20023;-71
2022/10/24 03:08:54;;;;;;;19.30;7.20;;;14.10;99.90;;;;;;4939909;29;20020;-71
2022/10/24 03:11:19;;;;;;;21.35;8.02;;;14.10;99.90;;;;;;4923759;29;20105;-71
2022/10/24 03:13:45;;;;;;;12.88;6.57;;;14.10;99.90;;;;;;4921730;29;20035;-70
2022/10/24 03:16:10;;;;;;;23.77;8.38;;;14.10;99.90;;;;;;4921513;29;20047;-71
2022/10/24 03:18:36;;;;;;;17.98;7.85;;;14.10;99.90;;;;;;4921259;29;20039;-71
2022/10/24 03:21:02;;;;;;;13.85;6.85;;;14.00;99.90;;;;;;4921633;29;20032;-71
2022/10/24 03:23:27;;;;;;;14.48;6.97;;;13.90;99.90;;;;;;4922883;29;20020;-71
2022/10/24 03:25:57;;;;;;;15.55;5.97;;;13.90;99.90;;;;;;4920734;29;20051;-71
2022/10/24 03:28:23;;;;;;;20.17;6.65;;;13.80;99.90;;;;;;4923620;29;20057;-71
2022/10/24 03:30:49;;;;;;;15.45;7.25;;;13.80;99.90;;;;;;4921678;29;20039;-70
2022/10/24 03:33:15;;;;;;;15.73;6.43;;;13.70;99.90;;;;;;4919616;29;20028;-70
2022/10/24 03:35:41;;;;;;;12.85;6.40;;;13.60;99.90;;;;;;4920938;29;20122;-70
2022/10/24 03:38:07;;;;;;;15.63;6.53;;;13.50;99.90;;;;;;4919808;29;20090;-70
2022/10/24 03:40:33;;;;;;;15.30;7.22;;;13.50;99.90;;;;;;4925197;29;20028;-72
2022/10/24 03:42:59;;;;;;;15.40;5.95;;;13.60;99.90;;;;;;4937347;29;20462;-72
2022/10/24 03:45:25;;;;;;;19.67;6.57;;;13.60;99.90;;;;;;4920915;29;20111;-72
2022/10/24 03:47:50;;;;;;;18.08;5.13;;;13.60;99.90;;;;;;4919673;29;20035;-73
2022/10/24 03:50:16;;;;;;;15.60;5.20;;;13.80;99.90;;;;;;4920350;29;20031;-73
2022/10/24 03:52:41;;;;;;;10.32;4.35;;;14.00;99.90;;;;;;4936414;29;20028;-73
2022/10/24 03:55:07;;;;;;;17.30;5.38;;;14.10;99.90;;;;;;4919476;29;20015;-73
2022/10/24 03:57:33;;;;;;;13.57;4.88;;;14.40;99.90;;;;;;4920378;29;20050;-74
2022/10/24 03:59:59;;;;;;;12.23;4.40;;;14.60;99.90;;;;;;4919747;29;20134;-73
2022/10/24 04:02:24;;;;;;;10.35;3.72;;;14.70;99.90;;;;;;4920119;29;20034;-73
2022/10/24 04:04:50;;;;;;;9.60;3.72;;;14.80;99.90;;;;;;4919897;29;20020;-74
2022/10/24 04:07:15;;;;;;;10.73;3.50;;;14.90;99.90;;;;;;4919100;29;20024;-74
2022/10/24 04:09:41;;;;;;;10.70;4.05;;;14.90;99.90;;;;;;4919272;29;20030;-74
2022/10/24 04:12:06;;;;;;;11.93;3.53;;;15.00;99.90;;;;;;4919380;29;20063;-73
2022/10/24 04:14:32;;;;;;;18.20;4.32;;;15.10;99.90;;;;;;4920605;29;20028;-72
2022/10/24 04:16:57;;;;;;;12.63;4.30;;;15.10;99.90;;;;;;4920171;29;20058;-72
2022/10/24 04:19:23;;;;;;;9.18;4.45;;;15.10;99.90;;;;;;4920645;29;20034;-72
2022/10/24 04:21:49;;;;;;;12.30;4.47;;;15.10;99.90;;;;;;4920669;29;20054;-72
2022/10/24 04:24:15;;;;;;;12.35;4.55;;;15.10;99.90;;;;;;4920050;29;20032;-72
2022/10/24 04:26:41;;;;;;;16.17;4.07;;;15.00;99.90;;;;;;4938980;29;20031;-73
2022/10/24 04:29:06;;;;;;;19.90;4.13;;;14.90;99.90;;;;;;4923841;29;20023;-74
2022/10/24 04:31:32;;;;;;;17.05;3.80;;;14.90;99.90;;;;;;4922906;29;20031;-74
2022/10/24 04:33:57;;;;;;;14.98;4.20;;;15.00;99.90;;;;;;4922920;29;20169;-74
2022/10/24 04:36:23;;;;;;;17.77;3.88;;;15.00;99.90;;;;;;4939841;29;20032;-73
2022/10/24 04:38:48;;;;;;;19.95;4.32;;;15.20;99.90;;;;;;4939974;29;20027;-73
2022/10/24 04:41:14;;;;;;;15.68;4.40;;;15.20;99.90;;;;;;4939744;29;20039;-72
2022/10/24 04:43:40;;;;;;;13.38;3.60;;;15.20;99.90;;;;;;4939692;29;20024;-72
2022/10/24 04:46:05;;;;;;;15.23;4.55;;;15.20;99.90;;;;;;4923837;29;20027;-73
2022/10/24 04:48:31;;;;;;;8.10;3.55;;;15.20;99.90;;;;;;4922379;29;20075;-73
2022/10/24 04:50:57;;;;;;;12.18;4.25;;;15.30;99.90;;;;;;4922542;29;20024;-74
2022/10/24 04:53:23;;;;;;;12.15;5.32;;;15.30;99.90;;;;;;4923003;29;20027;-73
2022/10/24 04:55:48;;;;;;;13.85;3.65;;;15.40;99.90;;;;;;4922366;29;20034;-73
2022/10/24 04:58:14;;;;;;;13.32;5.15;;;15.40;99.90;;;;;;4922264;29;20028;-73
2022/10/24 05:00:42;;;;;;;14.95;4.00;;;15.50;99.90;;;;;;4928670;29;20108;-74
2022/10/24 05:03:07;;;;;;;13.15;3.72;;;15.40;99.90;;;;;;4924504;29;20066;-73
2022/10/24 05:05:33;;;;;;;18.45;3.85;;;15.50;99.90;;;;;;4939220;29;20095;-73
2022/10/24 05:07:58;;;;;;;10.32;4.28;;;15.50;99.90;;;;;;4922388;29;20034;-73
2022/10/24 05:10:24;;;;;;;18.50;5.43;;;15.40;99.90;;;;;;4922203;29;20024;-73
2022/10/24 05:12:49;;;;;;;11.70;3.45;;;15.50;99.90;;;;;;4923176;29;20024;-73
2022/10/24 05:15:28;;;;;;;12.88;3.60;;;15.40;99.90;;;;;;4939226;29;20024;-73
2022/10/24 05:17:55;;;;;;;17.52;3.67;;;15.50;99.90;;;;;;4939200;29;20015;-73
2022/10/24 05:20:20;;;;;;;18.77;4.45;;;15.50;99.90;;;;;;4938864;29;20207;-72
2022/10/24 05:22:46;;;;;;;20.98;3.40;;;15.50;99.90;;;;;;4938838;29;20107;-72
2022/10/24 05:25:12;;;;;;;15.95;3.78;;;15.50;99.90;;;;;;4938730;29;20035;-72
2022/10/24 05:27:37;;;;;;;11.00;3.78;;;15.60;99.90;;;;;;4938769;29;20060;-72
2022/10/24 05:30:04;;;;;;;20.65;3.85;;;15.60;99.90;;;;;;4937742;29;20023;-72
2022/10/24 05:32:29;;;;;;;11.30;3.78;;;15.50;99.90;;;;;;4938871;29;20063;-72
2022/10/24 05:34:55;;;;;;;12.02;3.35;;;15.60;99.90;;;;;;4938665;29;20487;-72
2022/10/24 05:37:20;;;;;;;15.55;4.53;;;15.60;99.90;;;;;;4921319;29;20032;-72
2022/10/24 05:39:46;;;;;;;10.07;3.65;;;15.60;99.90;;;;;;4937165;29;20063;-72
2022/10/24 05:42:11;;;;;;;22.13;4.35;;;15.60;99.90;;;;;;4921365;29;20035;-72
2022/10/24 05:44:37;;;;;;;14.52;4.47;;;15.60;99.90;;;;;;4921688;29;20024;-72
2022/10/24 05:47:03;;;;;;;13.75;3.55;;;15.60;99.90;;;;;;4938705;29;20046;-72
2022/10/24 05:49:28;;;;;;;10.77;3.45;;;15.60;99.90;;;;;;4937347;29;20032;-72
2022/10/24 05:51:54;;;;;;;13.55;3.28;;;15.50;99.90;;;;;;4921257;29;20031;-72
2022/10/24 05:54:20;;;;;;;20.25;4.38;;;15.60;99.90;;;;;;4921272;29;20034;-72
2022/10/24 05:56:45;;;;;;;17.70;4.18;;;15.60;99.90;;;;;;4922204;29;20083;-72
2022/10/24 05:59:11;;;;;;;16.08;3.78;;;15.60;99.90;;;;;;4921515;29;20020;-72
2022/10/24 06:01:36;;;;;;;18.30;3.92;;;15.60;99.90;;;;;;4921822;29;20460;-72
2022/10/24 06:04:02;;;;;;;15.27;3.75;;;15.60;99.90;;;;;;4921802;29;20026;-72
2022/10/24 06:06:27;;;;;;;13.73;4.45;;;15.60;99.90;;;;;;4923421;29;20027;-72
2022/10/24 06:08:53;;;;;;;11.95;3.72;;;15.60;99.90;;;;;;4922296;29;20023;-73
2022/10/24 06:11:19;;;;;;;16.50;3.78;;;15.50;99.90;;;;;;4922143;29;20036;-73
2022/10/24 06:13:45;;;;;;;27.40;4.47;;;15.60;99.90;;;;;;4922101;29;20032;-72
2022/10/24 06:16:11;;;;;;;16.80;3.63;;;15.60;99.90;;;;;;4921952;29;20036;-72
2022/10/24 06:18:38;;;;;;;14.07;3.50;;;15.60;99.90;;;;;;4922047;29;20055;-72
2022/10/24 06:21:06;;;;;;;12.93;3.65;;;15.70;99.90;;;;;;4921494;29;20127;-72
2022/10/24 06:23:32;;;;;;;11.68;3.72;;;15.70;99.90;;;;;;4922718;29;20024;-72
2022/10/24 06:25:58;;;;;;;11.63;3.75;;;15.60;99.90;;;;;;4922976;29;20419;-72
2022/10/24 06:28:23;;;;;;;11.98;3.65;;;15.60;99.90;;;;;;4921860;29;20028;-72
2022/10/24 06:30:50;;;;;;;8.57;3.50;;;15.60;99.90;;;;;;4921847;29;20118;-72
2022/10/24 06:33:16;;;;;;;10.32;3.78;;;15.60;99.90;;;;;;4921699;29;20507;-72
2022/10/24 06:35:42;;;;;;;14.55;3.28;;;15.70;99.90;;;;;;4921796;29;20055;-72
2022/10/24 06:38:08;;;;;;;15.90;3.50;;;15.70;99.90;;;;;;4938586;29;20023;-72
2022/10/24 06:40:36;;;;;;;11.27;3.20;;;15.60;99.90;;;;;;4921107;29;20043;-72
2022/10/24 06:43:02;;;;;;;14.85;3.70;;;15.60;99.90;;;;;;4921727;29;20067;-72
2022/10/24 06:45:27;;;;;;;10.05;3.88;;;15.70;99.90;;;;;;4921398;29;20031;-72
2022/10/24 06:47:53;;;;;;;15.82;3.53;;;15.60;99.90;;;;;;4920105;29;20032;-72
2022/10/24 06:50:19;;;;;;;13.68;3.58;;;15.60;99.90;;;;;;4920596;29;20042;-72
2022/10/24 06:52:44;;;;;;;9.45;3.80;;;15.70;99.90;;;;;;4920512;29;20031;-72
2022/10/24 06:55:10;;;;;;;26.45;4.22;;;15.70;99.90;;;;;;4920407;29;20024;-72
2022/10/24 06:57:35;;;;;;;16.83;4.22;;;15.70;99.90;;;;;;4920339;29;20024;-72
2022/10/24 07:00:01;;;;;;;13.35;3.67;;;15.70;99.90;;;;;;4920803;29;20032;-72
2022/10/24 07:02:26;;;;;;;10.90;4.00;;;15.60;99.90;;;;;;4920734;29;20030;-73
2022/10/24 07:04:52;;;;;;;14.43;3.28;;;15.60;99.90;;;;;;4920266;29;20027;-73
2022/10/24 07:07:20;;;;;;;16.05;3.47;;;15.80;99.90;;;;;;4919877;29;20391;-73
2022/10/24 07:09:53;;;;;;;17.00;3.90;;;15.80;99.90;;;;;;4920112;29;20057;-73
2022/10/24 07:12:19;;;;;;;12.85;3.53;;;15.70;99.90;;;;;;4920643;29;20032;-73
2022/10/24 07:14:44;;;;;;;11.93;3.53;;;15.80;99.90;;;;;;4920148;29;20030;-72
2022/10/24 07:17:10;;;;;;;14.90;3.60;;;15.90;99.90;;;;;;4919719;29;20061;-72
2022/10/24 07:19:35;;;;;;;15.68;3.60;;;15.90;99.90;;;;;;4920263;29;20114;-73
2022/10/24 07:22:01;;;;;;;16.67;3.65;;;15.90;99.90;;;;;;4920359;29;20027;-73
2022/10/24 07:24:27;;;;;;;13.80;3.10;;;15.90;99.90;;;;;;4920451;29;20047;-73
2022/10/24 07:26:53;;;;;;;20.02;3.72;;;16.00;99.90;;;;;;4920428;29;20115;-73
2022/10/24 07:29:18;;;;;;;10.40;3.45;;;15.90;99.90;;;;;;4919946;29;20123;-73
2022/10/24 07:31:46;;;;;;;9.98;2.85;;;15.90;99.90;;;;;;4920428;29;20035;-73
2022/10/24 07:34:12;;;;;;;13.40;3.22;;;16.00;99.90;;;;;;4919710;29;20091;-73
2022/10/24 07:36:37;;;;;;;9.07;2.78;;;16.10;99.90;;;;;;4919394;29;20119;-73
2022/10/24 07:39:03;;;;;;;11.77;3.88;;;16.10;99.90;;;;;;4935063;29;20147;-73
2022/10/24 07:41:31;;;;;;;13.82;3.20;;;16.20;99.90;;;;;;4919067;29;20130;-73
2022/10/24 07:43:57;;;;;;;17.05;3.90;;;16.20;99.90;;;;;;4919338;29;20020;-73
2022/10/24 07:46:24;;;;;;;12.77;2.95;;;16.20;99.90;;;;;;4919721;29;20122;-72
2022/10/24 07:48:51;;;;;;;13.43;2.88;;;16.40;99.90;;;;;;4919903;29;20051;-72
2022/10/24 07:51:17;;;;;;;11.63;3.38;;;16.30;99.90;;;;;;4936225;29;20180;-72
2022/10/24 07:53:43;;;;;;;17.58;3.92;;;16.30;99.90;;;;;;4919148;29;20027;-72
2022/10/24 07:56:13;;;;;;;11.85;3.00;;;16.40;99.90;;;;;;4919171;29;20038;-72
2022/10/24 07:58:39;;;;;;;10.82;3.08;;;16.40;99.90;;;;;;4919022;29;20032;-72
2022/10/24 08:01:09;;;;;;;14.55;2.95;;;16.40;99.90;;;;;;4935450;29;20042;-73
2022/10/24 08:03:35;;;;;;;12.60;3.07;;;16.20;99.90;;;;;;4919895;29;20024;-73
2022/10/24 08:06:05;;;;;;;12.75;3.30;;;16.10;99.90;;;;;;4928347;29;20023;-74
2022/10/24 08:08:31;;;;;;;13.45;4.10;;;16.10;99.90;;;;;;4953863;29;20046;-74
2022/10/24 08:10:57;;;;;;;10.07;2.85;;;16.10;99.90;;;;;;4953896;28;20487;-74
2022/10/24 08:13:22;;;;;;;8.68;2.67;;;16.00;99.90;;;;;;4955049;29;20027;-74
2022/10/24 08:15:48;;;;;;;12.65;3.53;;;16.10;99.90;;;;;;4937933;29;20023;-75
2022/10/24 08:18:13;;;;;;;15.50;3.85;;;16.00;99.90;;;;;;4938556;29;20082;-74
2022/10/24 08:20:39;;;;;;;7.95;3.47;;;15.90;99.90;;;;;;4938114;29;20035;-74
2022/10/24 08:23:04;;;;;;;12.13;3.40;;;15.80;99.90;;;;;;4938231;29;20023;-73
2022/10/24 08:25:30;;;;;;;11.48;3.08;;;15.70;99.90;;;;;;4955975;29;20046;-73
2022/10/24 08:27:55;;;;;;;13.32;3.17;;;15.80;99.90;;;;;;4938772;28;20367;-73
2022/10/24 08:30:22;;;;;;;12.48;3.88;;;15.90;99.90;;;;;;4938848;29;20027;-74
2022/10/24 08:32:47;;;;;;;12.23;3.35;;;15.90;99.90;;;;;;4937969;29;20023;-73
2022/10/24 08:35:18;;;;;;;13.43;3.42;;;16.10;99.90;;;;;;4954495;29;20026;-73
2022/10/24 08:37:44;;;;;;;14.73;3.28;;;16.20;99.90;;;;;;4938062;28;20024;-73
2022/10/24 08:40:16;;;;;;;11.05;3.35;;;16.20;99.90;;;;;;4964386;23;20094;-74
2022/10/24 08:42:43;;;;;;;15.00;3.08;;;16.30;99.90;;;;;;4958782;29;20034;-74
2022/10/24 08:45:33;;;;;;;9.35;3.15;;;16.30;99.90;;;;;;4939038;29;20022;-75
2022/10/24 08:48:08;;;;;;;14.45;3.38;;;16.30;99.90;;;;;;4938618;29;20031;-75
2022/10/24 08:50:35;;;;;;;11.68;3.25;;;16.40;99.90;;;;;;4936336;29;20027;-74
2022/10/24 08:53:21;;;;;;;17.80;3.38;;;16.50;99.90;;;;;;4937320;29;20028;-74
2022/10/24 08:55:50;;;;;;;12.98;2.97;;;16.40;99.90;;;;;;4919525;29;20034;-74
2022/10/24 08:58:18;;;;;;;14.18;3.08;;;16.50;99.90;;;;;;4918839;29;20028;-74
2022/10/24 09:00:47;;;;;;;21.98;2.65;;;16.60;99.90;;;;;;4919057;29;20103;-74
2022/10/24 09:03:47;;;;;;;8.48;3.03;;;16.70;99.90;;;;;;4919392;29;20055;-76
2022/10/24 09:06:41;;;;;;;10.57;3.28;;;16.60;99.90;;;;;;4935988;29;20024;-76
2022/10/24 09:25:14;;;;;;;16.30;3.08;;;17.20;99.90;;;;;;4863644;29;20079;-77
2022/10/24 09:34:35;;;;;;;7.47;2.93;;;17.50;99.90;;;;;;4826801;29;20087;-77
2022/10/24 09:37:00;;;;;;;13.77;3.83;;;17.50;99.90;;;;;;4826598;29;20272;-77
2022/10/24 09:39:35;;;;;;;14.27;2.83;;;17.70;99.90;;;;;;4826883;29;20023;-79
2022/10/24 09:42:02;;;;;;;7.15;2.50;;;17.70;99.90;;;;;;4826796;29;20046;-77
2022/10/24 09:44:37;;;;;;;12.32;3.13;;;17.80;99.90;;;;;;4827038;29;20106;-78
2022/10/24 09:47:07;;;;;;;16.98;3.20;;;18.00;99.90;;;;;;4827318;29;20038;-77
2022/10/24 09:49:36;;;;;;;17.33;3.85;;;18.00;99.90;;;;;;4994903;23;20051;-77
2022/10/24 09:52:24;;;;;;;15.43;2.45;;;18.10;99.90;;;;;;4923499;29;20123;-77
2022/10/24 09:55:06;;;;;;;10.57;2.20;;;18.30;99.90;;;;;;4923489;29;20126;-77
2022/10/24 09:57:40;;;;;;;12.68;2.42;;;18.50;99.90;;;;;;4922573;29;20067;-78
2022/10/24 10:00:18;;;;;;;13.48;2.75;;;18.50;99.90;;;;;;4939617;29;20087;-77
2022/10/24 10:02:57;;;;;;;15.88;2.97;;;18.60;99.90;;;;;;4940160;29;20039;-77
2022/10/24 10:05:23;;;;;;;13.27;2.72;;;19.00;99.90;;;;;;4925393;29;20028;-78
2022/10/24 10:07:50;;;;;;;7.97;2.47;;;19.10;99.90;;;;;;4921465;29;20055;-77
2022/10/24 10:10:53;;;;;;;6.00;2.38;;;19.30;99.90;;;;;;4938257;29;20026;-78
2022/10/24 10:13:25;;;;;;;11.60;2.30;;;19.60;99.90;;;;;;4911231;29;20086;-77
2022/10/24 10:15:54;;;;;;;9.60;2.20;;;19.70;99.90;;;;;;4922060;29;20028;-77
2022/10/24 10:18:20;;;;;;;14.52;2.42;;;19.80;99.90;;;;;;4920566;29;20034;-77
2022/10/24 10:20:57;;;;;;;10.77;2.60;;;19.80;99.90;;;;;;4920999;29;20023;-77
2022/10/24 10:23:49;;;;;;;13.43;2.42;;;19.90;99.90;;;;;;4937460;29;20027;-78
2022/10/24 10:26:40;;;;;;;9.00;2.65;;;20.00;99.90;;;;;;4921483;29;20028;-77
2022/10/24 10:29:21;;;;;;;16.30;2.17;;;20.00;99.90;;;;;;4920484;29;20031;-77
2022/10/24 10:31:52;;;;;;;8.43;2.35;;;20.00;99.90;;;;;;4920764;29;20027;-77
2022/10/24 10:34:49;;;;;;;15.52;2.13;;;20.10;99.90;;;;;;4922351;29;20182;-77
2022/10/24 10:37:28;;;;;;;12.77;2.63;;;20.40;99.90;;;;;;4921260;29;20032;-77
2022/10/24 10:39:59;;;;;;;12.63;2.20;;;20.50;99.90;;;;;;4937479;29;20062;-77
2022/10/24 10:42:44;;;;;;;14.80;2.47;;;20.80;99.90;;;;;;4920465;29;20028;-77
2022/10/24 10:45:15;;;;;;;7.38;1.70;;;20.90;99.90;;;;;;4921357;29;20043;-77
2022/10/24 10:48:00;;;;;;;7.72;2.17;;;20.90;99.90;;;;;;4920407;29;20027;-77
2022/10/24 10:50:56;;;;;;;5.28;1.40;;;20.90;99.90;;;;;;4920475;29;20091;-77
2022/10/24 10:53:50;;;;;;;9.05;2.10;;;21.00;99.90;;;;;;4920204;29;20027;-77
2022/10/24 10:57:26;;;;;;;7.40;1.70;;;20.90;99.90;;;;;;4937529;29;20023;-77
2022/10/24 11:00:06;;;;;;;8.10;1.30;;;20.90;99.90;;;;;;4841725;29;20489;-77
2022/10/24 11:02:43;;;;;;;3.50;1.70;;;21.00;99.90;;;;;;4827208;29;20042;-77
2022/10/24 11:05:27;;;;;;;4.82;1.30;;;20.90;99.90;;;;;;4826895;29;20076;-77
2022/10/24 11:08:18;;;;;;;5.75;1.92;;;21.10;99.90;;;;;;4826665;29;20022;-77
2022/10/24 11:10:53;;;;;;;7.25;2.25;;;21.00;99.90;;;;;;4826310;29;20071;-77
2022/10/24 11:13:28;;;;;;;6.80;2.60;;;20.80;99.90;;;;;;4841422;29;20040;-77
2022/10/24 11:16:24;;;;;;;5.28;1.52;;;20.80;99.90;;;;;;4841377;29;20036;-77
2022/10/24 11:18:52;;;;;;;5.97;2.42;;;20.70;99.90;;;;;;4826139;29;20155;-77
2022/10/24 11:21:21;;;;;;;14.23;2.65;;;20.50;99.90;;;;;;4825998;29;20026;-77
2022/10/24 11:24:13;;;;;;;6.72;1.55;;;20.40;99.90;;;;;;4841334;29;20041;-77
2022/10/24 11:26:44;;;;;;;6.80;1.60;;;20.90;99.90;;;;;;4826017;29;20132;-77
2022/10/24 11:29:33;;;;;;;9.80;1.93;;;21.20;99.90;;;;;;4830276;29;20038;-77
2022/10/24 11:32:41;;;;;;;8.57;1.63;;;21.50;99.90;;;;;;4878158;29;20033;-77
2022/10/24 11:35:28;;;;;;;10.27;1.90;;;21.70;99.90;;;;;;4898975;29;20045;-77
2022/10/24 11:38:17;;;;;;;5.25;1.50;;;21.40;99.90;;;;;;4919337;29;20019;-77
2022/10/24 11:40:44;;;;;;;6.30;1.90;;;21.40;99.90;;;;;;4919906;29;20027;-77
2022/10/24 11:43:27;;;;;;;7.75;1.77;;;21.50;99.90;;;;;;4919436;29;20023;-77
2022/10/24 11:46:06;;;;;;;7.43;1.75;;;21.50;99.90;;;;;;4919297;29;20024;-77
2022/10/24 11:48:46;;;;;;;13.23;2.25;;;21.40;99.90;;;;;;4919199;29;20024;-76
2022/10/24 11:51:24;;;;;;;8.63;1.75;;;21.10;99.90;;;;;;4919202;29;20027;-77
2022/10/24 11:53:57;;;;;;;6.55;1.95;;;20.90;99.90;;;;;;4919210;29;20034;-77
2022/10/24 11:56:41;;;;;;;5.07;1.83;;;20.70;99.90;;;;;;4936164;29;20098;-77
2022/10/24 11:59:14;;;;;;;8.77;1.75;;;20.70;99.90;;;;;;4919054;29;20051;-77
2022/10/24 12:02:18;;;;;;;14.23;2.05;;;20.70;99.90;;;;;;4918910;29;20086;-77
2022/10/24 12:05:09;;;;;;;6.88;1.73;;;20.60;99.90;;;;;;4897931;29;20032;-77
2022/10/24 12:08:07;;;;;;;5.32;1.45;;;20.60;99.90;;;;;;4919157;29;20023;-77
2022/10/24 12:11:14;;;;;;;4.60;1.55;;;20.90;99.90;;;;;;4919812;29;20055;-77
2022/10/24 12:14:10;;;;;;;4.10;1.75;;;21.20;99.90;;;;;;4862474;29;20044;-76
2022/10/24 12:16:38;;;;;;;5.88;1.70;;;21.30;99.90;;;;;;4864677;29;20116;-76
2022/10/24 12:19:10;;;;;;;4.72;1.88;;;21.10;99.90;;;;;;4864407;29;20112;-76
2022/10/24 12:21:45;;;;;;;4.00;1.77;;;21.00;99.90;;;;;;4864875;29;20029;-76
2022/10/24 12:24:31;;;;;;;6.03;1.50;;;20.90;99.90;;;;;;4864876;29;20029;-76
2022/10/24 12:27:25;;;;;;;9.15;1.60;;;20.90;99.90;;;;;;4880395;29;20028;-76
2022/10/24 12:30:13;;;;;;;6.00;1.55;;;20.80;99.90;;;;;;4858670;29;20041;-76
2022/10/24 12:32:46;;;;;;;7.20;1.80;;;20.70;99.90;;;;;;4864720;29;20025;-76
2022/10/24 12:35:29;;;;;;;8.43;2.10;;;20.60;99.90;;;;;;4865203;29;20039;-78
2022/10/24 12:37:55;;;;;;;7.70;2.20;;;20.50;99.90;;;;;;4865429;29;20056;-76
2022/10/24 12:40:45;;;;;;;8.20;2.10;;;20.40;99.90;;;;;;4864497;29;20120;-76
2022/10/24 12:43:15;;;;;;;4.85;1.70;;;20.30;99.90;;;;;;4880004;29;20120;-76
2022/10/24 12:45:41;;;;;;;10.80;2.10;;;20.30;99.90;;;;;;4864686;29;20033;-76
2022/10/24 12:48:27;;;;;;;12.20;2.38;;;20.30;99.90;;;;;;4867903;29;20083;-76
2022/10/24 12:50:56;;;;;;;11.07;2.08;;;20.50;99.90;;;;;;4916262;29;20064;-76
2022/10/24 12:53:58;;;;;;;13.40;2.63;;;21.10;99.90;;;;;;4925777;29;20066;-76
2022/10/24 12:56:23;;;;;;;9.35;2.63;;;21.80;99.90;;;;;;4925660;29;20506;-76
2022/10/24 12:59:17;;;;;;;12.98;2.13;;;22.40;99.90;;;;;;4925095;29;20027;-76
2022/10/24 13:01:43;;;;;;;3.72;1.60;;;22.40;99.90;;;;;;4925673;29;20027;-76
2022/10/24 13:04:28;;;;;;;4.97;1.80;;;22.60;99.90;;;;;;4925195;29;20032;-76
2022/10/24 13:07:03;;;;;;;10.85;4.00;;;22.90;99.90;;;;;;4925747;29;20087;-75
2022/10/24 13:10:00;;;;;;;9.50;2.47;;;23.00;99.90;;;;;;4925145;29;20028;-75
2022/10/24 13:12:35;;;;;;;5.75;1.80;;;23.00;99.90;;;;;;4924731;29;20031;-75
2022/10/24 13:15:23;;;;;;;7.85;1.20;;;23.20;99.90;;;;;;4924101;29;20020;-75
2022/10/24 13:17:58;;;;;;;8.02;1.38;;;22.80;99.90;;;;;;4924181;29;20035;-76
2022/10/24 13:20:33;;;;;;;3.75;1.20;;;22.30;99.90;;;;;;4924311;29;20399;-76
2022/10/24 13:23:14;;;;;;;6.25;1.30;;;22.00;99.90;;;;;;4925521;29;20031;-76
2022/10/24 13:25:40;;;;;;;9.32;1.20;;;21.90;99.90;;;;;;4924524;29;20035;-75
2022/10/24 13:28:21;;;;;;;4.10;1.05;;;21.80;99.90;;;;;;4923885;29;20388;-75
2022/10/24 13:30:48;;;;;;;6.03;1.00;;;21.60;99.90;;;;;;4940501;29;20019;-75
2022/10/24 13:33:32;;;;;;;7.45;1.67;;;21.50;99.90;;;;;;4924888;29;20063;-76
2022/10/24 13:36:21;;;;;;;7.18;1.77;;;21.60;99.90;;;;;;4925241;29;20488;-75
2022/10/24 13:38:51;;;;;;;5.07;1.00;;;21.70;99.90;;;;;;4925956;29;20107;-76
2022/10/24 13:41:38;;;;;;;4.85;2.15;;;21.60;99.90;;;;;;4927016;29;20023;-76
2022/10/24 13:44:21;;;;;;;5.38;1.40;;;21.50;99.90;;;;;;4926311;29;20027;-76
2022/10/24 13:47:02;;;;;;;4.95;1.00;;;21.40;99.90;;;;;;4925712;29;20035;-75
2022/10/24 13:49:32;;;;;;;5.82;0.90;;;21.40;99.90;;;;;;4923347;29;20031;-76
2022/10/24 13:52:32;;;;;;;3.80;0.85;;;21.30;99.90;;;;;;4922055;29;20035;-76
2022/10/24 13:55:26;;;;;;;8.07;1.42;;;21.20;99.90;;;;;;4883993;29;20040;-76
2022/10/24 13:58:06;;;;;;;3.15;0.93;;;21.20;99.90;;;;;;4882363;29;20051;-73
2022/10/24 14:00:36;;;;;;;2.92;0.75;;;21.30;99.90;;;;;;4883682;29;20041;-74
2022/10/24 14:03:15;;;;;;;3.92;1.13;;;21.60;99.90;;;;;;4883847;29;20035;-74
2022/10/24 14:05:50;;;;;;;4.93;0.80;;;21.90;99.90;;;;;;4884680;29;20117;-74
2022/10/24 14:08:35;;;;;;;6.50;0.75;;;22.50;99.90;;;;;;4884484;29;20080;-74
2022/10/24 14:11:04;;;;;;;6.60;0.93;;;23.00;99.90;;;;;;4885876;29;20035;-74
2022/10/24 14:13:33;;;;;;;3.78;0.90;;;23.10;99.90;;;;;;4888148;29;20037;-73
2022/10/24 14:16:05;;;;;;;3.88;1.08;;;22.90;99.90;;;;;;4885811;29;20024;-75
2022/10/24 14:18:32;;;;;;;7.00;1.10;;;22.90;99.90;;;;;;4882178;29;20036;-74
2022/10/24 14:21:00;;;;;;;4.97;1.40;;;22.50;99.90;;;;;;4882432;29;20039;-74
2022/10/24 14:23:30;;;;;;;2.78;0.95;;;22.20;99.90;;;;;;4882728;29;20021;-75
2022/10/24 14:25:57;;;;;;;5.53;1.10;;;22.20;99.90;;;;;;4882712;29;20032;-75
2022/10/24 14:28:32;;;;;;;2.88;0.93;;;22.30;99.90;;;;;;4882933;29;20039;-75
2022/10/24 14:31:04;;;;;;;5.80;1.20;;;22.30;99.90;;;;;;4889356;29;20032;-73
2022/10/24 14:33:32;;;;;;;4.82;1.00;;;22.10;99.90;;;;;;4922511;29;20242;-75
2022/10/24 14:36:00;;;;;;;6.00;1.48;;;21.80;99.90;;;;;;4921539;29;20063;-75
2022/10/24 14:38:27;;;;;;;8.63;1.45;;;21.60;99.90;;;;;;4921929;29;20062;-75
2022/10/24 14:40:54;;;;;;;4.50;1.00;;;21.60;99.90;;;;;;4921491;29;20119;-75
2022/10/24 14:43:28;;;;;;;3.80;1.00;;;21.50;99.90;;;;;;4922188;29;20027;-74
2022/10/24 14:46:11;;;;;;;3.22;1.05;;;21.50;99.90;;;;;;4921271;29;20064;-74
2022/10/24 14:48:40;;;;;;;5.60;0.82;;;21.20;99.90;;;;;;4921615;29;20183;-74
2022/10/24 14:51:15;;;;;;;6.20;1.45;;;21.00;99.90;;;;;;4921178;29;20038;-74
2022/10/24 14:53:42;;;;;;;5.43;1.20;;;20.90;99.90;;;;;;4921757;29;20472;-74
2022/10/24 14:56:32;;;;;;;10.50;2.20;;;20.70;99.90;;;;;;4932136;23;20111;-70
2022/10/24 14:59:00;;;;;;;10.20;1.80;;;20.60;99.90;;;;;;4917049;29;20020;-70
2022/10/24 15:01:26;;;;;;;5.65;2.10;;;20.40;99.90;;;;;;4918728;29;20078;-71
2022/10/24 15:04:01;;;;;;;4.40;1.55;;;20.30;99.90;;;;;;4917713;29;20029;-71
2022/10/24 15:06:39;;;;;;;10.90;1.70;;;20.30;99.90;;;;;;4917186;29;20076;-71
2022/10/24 15:09:14;;;;;;;3.10;1.15;;;20.20;99.90;;;;;;4917615;29;20087;-71
2022/10/24 15:11:45;;;;;;;5.90;1.20;;;20.00;99.90;;;;;;4916788;29;20047;-71
2022/10/24 15:14:29;;;;;;;;;;;19.90;99.90;;;;;;4917513;29;20028;-71
2022/10/24 15:16:55;;;;;;;12.48;1.58;;;19.80;99.90;;;;;;4917954;29;20377;-71
2022/10/24 15:19:21;;;;;;;4.50;0.90;;;19.80;99.90;;;;;;4916861;29;20032;-72
2022/10/24 15:21:47;;;;;;;3.35;1.23;;;19.90;99.90;;;;;;4918199;29;20028;-69
2022/10/24 15:24:24;;;;;;;5.65;0.82;;;19.80;99.90;;;;;;4916721;29;20024;-71
2022/10/24 15:26:51;;;;;;;4.13;0.88;;;19.80;99.90;;;;;;4917920;29;20095;-71
2022/10/24 15:29:21;;;;;;;2.50;0.98;;;19.70;99.90;;;;;;4918250;29;20059;-69
2022/10/24 15:31:49;;;;;;;5.50;1.08;;;19.70;99.90;;;;;;4917891;29;20047;-69
2022/10/24 15:34:22;;;;;;;4.90;1.20;;;19.60;99.90;;;;;;4917430;29;20428;-71
2022/10/24 15:36:50;;;;;;;8.25;0.80;;;19.70;99.90;;;;;;4917078;29;20480;-72
2022/10/24 15:39:18;;;;;;;8.60;1.77;;;19.70;99.90;;;;;;4917397;29;20066;-70
2022/10/24 15:41:44;;;;;;;13.32;1.20;;;19.60;99.90;;;;;;4916619;29;20032;-69
2022/10/24 15:44:19;;;;;;;9.50;1.35;;;19.60;99.90;;;;;;4916523;29;20031;-69
2022/10/24 15:46:46;;;;;;;3.83;1.15;;;19.50;99.90;;;;;;4916304;29;20028;-69
2022/10/24 15:49:12;;;;;;;4.63;1.20;;;19.50;99.90;;;;;;4917694;29;20032;-72
2022/10/24 15:51:39;;;;;;;4.15;1.73;;;19.50;99.90;;;;;;4918027;29;20111;-73
2022/10/24 15:54:05;;;;;;;11.50;1.52;;;19.50;99.90;;;;;;4916140;29;20035;-71
2022/10/24 15:56:31;;;;;;;10.98;1.27;;;19.40;99.90;;;;;;4916139;29;20035;-70
2022/10/24 15:58:57;;;;;;;6.40;1.20;;;19.50;99.90;;;;;;4916398;29;20032;-70
2022/10/24 16:01:31;;;;;;;6.32;1.40;;;19.40;99.90;;;;;;4915903;29;20032;-70
2022/10/24 16:03:58;;;;;;;3.08;0.88;;;19.30;99.90;;;;;;4917428;29;20079;-70
2022/10/24 16:06:24;;;;;;;4.88;0.88;;;19.30;99.90;;;;;;4918080;29;20028;-70
2022/10/24 16:08:50;;;;;;;8.50;1.13;;;19.30;99.90;;;;;;4916853;29;20032;-70